createdAt,value
2023-05-08T00:00:05.933Z,2.00
2023-05-08T00:02:34.737Z,2.50
2023-05-08T00:05:03.302Z,2.20
2023-05-08T00:07:32.074Z,2.27
2023-05-08T00:10:00.751Z,2.47
2023-05-08T00:12:29.149Z,2.30
2023-05-08T00:14:58.697Z,2.43
2023-05-08T00:17:27.587Z,2.13
2023-05-08T00:19:56.413Z,2.27
2023-05-08T00:22:24.617Z,2.43
2023-05-08T00:24:53.200Z,2.27
2023-05-08T00:27:21.783Z,2.10
2023-05-08T00:29:50.356Z,2.57
2023-05-08T00:32:20.242Z,2.40
2023-05-08T00:34:48.647Z,2.17
2023-05-08T00:37:16.877Z,1.90
2023-05-08T00:39:45.451Z,2.37
2023-05-08T00:42:13.756Z,2.30
2023-05-08T00:44:42.020Z,2.70
2023-05-08T00:47:11.032Z,2.13
2023-05-08T00:49:41.213Z,2.20
2023-05-08T00:52:09.675Z,2.30
2023-05-08T00:54:39.308Z,2.67
2023-05-08T00:57:08.963Z,2.13
2023-05-08T00:59:38.109Z,2.47
2023-05-08T01:02:07.366Z,2.10
2023-05-08T01:04:37.872Z,1.97
2023-05-08T01:07:07.470Z,1.93
2023-05-08T01:09:36.130Z,2.10
2023-05-08T01:12:12.011Z,2.30
2023-05-08T01:14:53.060Z,2.30
2023-05-08T01:17:31.040Z,1.97
2023-05-08T01:20:15.260Z,2.30
2023-05-08T01:23:21.547Z,2.20
2023-05-08T01:26:20.137Z,2.47
2023-05-08T01:29:25.623Z,2.10
2023-05-08T01:32:13.615Z,2.10
2023-05-08T01:34:51.180Z,2.13
2023-05-08T01:37:28.879Z,2.30
2023-05-08T01:40:03.795Z,1.97
2023-05-08T01:42:40.981Z,2.37
2023-05-08T01:45:14.730Z,2.33
2023-05-08T01:47:49.799Z,2.67
2023-05-08T01:50:23.331Z,2.10
2023-05-08T01:52:59.678Z,2.17
2023-05-08T01:55:31.782Z,2.00
2023-05-08T01:58:03.209Z,2.33
2023-05-08T02:00:31.481Z,1.97
2023-05-08T02:03:01.881Z,2.10
2023-05-08T02:05:30.769Z,1.93
2023-05-08T02:07:59.846Z,2.87
2023-05-08T02:10:30.705Z,2.53
2023-05-08T02:13:03.481Z,2.60
2023-05-08T02:15:36.017Z,2.40
2023-05-08T02:18:08.615Z,2.70
2023-05-08T02:20:38.478Z,1.93
2023-05-08T02:23:07.518Z,2.37
2023-05-08T02:25:37.998Z,2.30
2023-05-08T02:28:08.714Z,2.70
2023-05-08T02:30:37.395Z,1.93
2023-05-08T02:33:11.460Z,2.50
2023-05-08T02:35:41.562Z,2.20
2023-05-08T02:38:11.756Z,2.00
2023-05-08T02:40:45.718Z,1.90
2023-05-08T02:43:14.422Z,2.07
2023-05-08T02:45:48.491Z,2.20
2023-05-08T02:48:27.670Z,2.37
2023-05-08T02:51:01.458Z,2.03
2023-05-08T02:53:36.117Z,2.43
2023-05-08T02:56:11.022Z,2.00
2023-05-08T02:58:46.922Z,2.67
2023-05-08T03:01:23.479Z,2.40
2023-05-08T03:04:01.250Z,2.33
2023-05-08T03:06:35.734Z,2.30
2023-05-08T03:09:05.940Z,2.43
2023-05-08T03:11:42.197Z,2.30
2023-05-08T03:14:13.546Z,2.23
2023-05-08T03:16:44.477Z,2.50
2023-05-08T03:19:21.842Z,2.40
2023-05-08T03:21:54.369Z,2.23
2023-05-08T03:24:24.779Z,2.17
2023-05-08T03:26:53.397Z,2.40
2023-05-08T03:29:22.861Z,2.67
2023-05-08T03:31:53.164Z,2.40
2023-05-08T03:34:25.033Z,2.50
2023-05-08T03:36:53.757Z,2.43
2023-05-08T03:39:21.884Z,2.50
2023-05-08T03:41:50.478Z,3.10
2023-05-08T03:44:20.064Z,3.00
2023-05-08T03:46:50.981Z,2.70
2023-05-08T03:49:20.314Z,2.73
2023-05-08T03:51:51.040Z,3.53
2023-05-08T03:54:19.168Z,2.90
2023-05-08T03:56:48.042Z,2.60
2023-05-08T03:59:22.275Z,2.67
2023-05-08T04:01:56.352Z,2.40
2023-05-08T04:04:31.734Z,2.60
2023-05-08T04:07:10.389Z,2.80
2023-05-08T04:09:46.156Z,2.50
2023-05-08T04:12:19.862Z,2.77
2023-05-08T04:14:56.196Z,2.47
2023-05-08T04:17:36.360Z,2.63
2023-05-08T04:20:10.393Z,2.33
2023-05-08T04:22:42.044Z,2.37
2023-05-08T04:25:16.372Z,2.10
2023-05-08T04:27:46.510Z,2.63
2023-05-08T04:30:16.017Z,2.90
2023-05-08T04:32:46.873Z,1.70
2023-05-08T04:35:17.358Z,1.93
2023-05-08T04:37:48.009Z,2.03
2023-05-08T04:40:16.274Z,2.30
2023-05-08T04:42:47.610Z,1.93
2023-05-08T04:45:16.585Z,1.90
2023-05-08T04:47:45.005Z,2.50
2023-05-08T04:50:13.971Z,2.10
2023-05-08T04:52:42.807Z,1.70
2023-05-08T04:55:12.996Z,1.80
2023-05-08T04:57:41.901Z,2.30
2023-05-08T05:00:11.232Z,2.10
2023-05-08T05:02:40.010Z,2.20
2023-05-08T05:05:09.398Z,2.10
2023-05-08T05:07:37.692Z,1.87
2023-05-08T05:10:06.516Z,2.00
2023-05-08T05:12:36.286Z,2.10
2023-05-08T05:15:04.770Z,2.33
2023-05-08T05:17:35.706Z,1.90
2023-05-08T05:20:06.713Z,2.30
2023-05-08T05:22:34.922Z,1.73
2023-05-08T05:25:04.022Z,2.13
2023-05-08T05:27:32.677Z,2.10
2023-05-08T05:30:02.228Z,2.23
2023-05-08T05:32:31.082Z,2.40
2023-05-08T05:34:59.968Z,2.10
2023-05-08T05:37:28.147Z,2.00
2023-05-08T05:39:56.926Z,2.30
2023-05-08T05:42:26.084Z,1.80
2023-05-08T05:44:54.294Z,2.40
2023-05-08T05:47:24.398Z,1.93
2023-05-08T05:49:52.769Z,1.90
2023-05-08T05:52:21.210Z,2.27
2023-05-08T05:54:50.949Z,1.87
2023-05-08T05:57:19.655Z,2.17
2023-05-08T05:59:47.905Z,2.03
2023-05-08T06:02:18.968Z,2.03
2023-05-08T06:04:50.597Z,1.50
2023-05-08T06:07:21.163Z,2.03
2023-05-08T06:09:51.587Z,2.13
2023-05-08T06:12:20.433Z,2.83
2023-05-08T06:14:48.586Z,1.90
2023-05-08T06:17:19.503Z,2.23
2023-05-08T06:19:53.996Z,2.40
2023-05-08T06:22:23.802Z,2.03
2023-05-08T06:24:53.477Z,2.20
2023-05-08T06:27:22.421Z,2.03
2023-05-08T06:29:53.489Z,2.20
2023-05-08T06:32:22.470Z,2.17
2023-05-08T06:34:52.184Z,2.30
2023-05-08T06:37:21.635Z,2.23
2023-05-08T06:39:57.254Z,2.20
2023-05-08T06:42:33.100Z,2.33
2023-05-08T06:45:01.191Z,2.10
2023-05-08T06:47:29.383Z,2.30
2023-05-08T06:49:59.048Z,2.50
2023-05-08T06:52:27.256Z,1.87
2023-05-08T06:54:55.448Z,1.80
2023-05-08T06:57:26.395Z,2.23
2023-05-08T06:59:54.788Z,2.00
2023-05-08T07:02:22.970Z,2.20
2023-05-08T07:04:52.274Z,2.10
2023-05-08T07:07:21.825Z,1.90
2023-05-08T07:09:49.990Z,3.53
2023-05-08T07:12:19.725Z,2.03
2023-05-08T07:14:47.941Z,2.40
2023-05-08T07:17:16.533Z,1.97
2023-05-08T07:19:44.855Z,2.10
2023-05-08T07:22:13.087Z,2.00
2023-05-08T07:24:42.626Z,1.90
2023-05-08T07:27:14.541Z,1.80
2023-05-08T07:29:43.448Z,2.40
2023-05-08T07:32:11.894Z,1.50
2023-05-08T07:34:40.715Z,2.30
2023-05-08T07:37:08.911Z,2.13
2023-05-08T07:39:37.123Z,2.03
2023-05-08T07:42:07.967Z,2.10
2023-05-08T07:44:43.673Z,2.00
2023-05-08T07:47:21.737Z,1.80
2023-05-08T07:49:50.301Z,2.20
2023-05-08T07:52:18.415Z,1.63
2023-05-08T07:54:47.777Z,1.90
2023-05-08T07:57:17.347Z,2.07
2023-05-08T07:59:45.455Z,1.70
2023-05-08T08:02:14.523Z,1.93
2023-05-08T08:04:42.827Z,2.10
2023-05-08T08:07:11.012Z,1.83
2023-05-08T08:09:39.279Z,2.03
2023-05-08T08:12:07.641Z,1.93
2023-05-08T08:14:37.524Z,1.90
2023-05-08T08:17:06.121Z,1.80
2023-05-08T08:19:34.377Z,1.70
2023-05-08T08:22:02.536Z,1.80
2023-05-08T08:24:32.111Z,2.17
2023-05-08T08:27:00.306Z,1.90
2023-05-08T08:29:28.523Z,1.90
2023-05-08T08:32:01.258Z,2.30
2023-05-08T08:34:29.408Z,1.97
2023-05-08T08:36:59.867Z,1.63
2023-05-08T08:39:28.738Z,1.90
2023-05-08T08:41:56.979Z,1.70
2023-05-08T08:44:25.258Z,1.77
2023-05-08T08:46:54.012Z,1.70
2023-05-08T08:49:32.070Z,1.77
2023-05-08T08:52:04.328Z,1.97
2023-05-08T08:54:36.360Z,2.00
2023-05-08T08:57:09.831Z,1.80
2023-05-08T08:59:39.915Z,1.83
2023-05-08T09:02:12.794Z,1.63
2023-05-08T09:04:42.523Z,1.80
2023-05-08T09:07:11.727Z,1.87
2023-05-08T09:09:44.521Z,1.80
2023-05-08T09:12:14.300Z,2.00
2023-05-08T09:14:42.642Z,1.77
2023-05-08T09:17:11.674Z,2.07
2023-05-08T09:19:39.927Z,2.10
2023-05-08T09:22:10.923Z,2.00
2023-05-08T09:24:58.138Z,1.77
2023-05-08T09:27:27.920Z,1.60
2023-05-08T09:30:04.678Z,1.70
2023-05-08T09:32:34.059Z,1.67
2023-05-08T09:35:03.140Z,1.67
2023-05-08T09:37:32.850Z,1.97
2023-05-08T09:40:21.151Z,2.03
2023-05-08T09:42:51.157Z,2.43
2023-05-08T09:45:29.272Z,1.60
2023-05-08T09:47:57.770Z,1.77
2023-05-08T09:50:26.876Z,2.20
2023-05-08T09:52:56.527Z,1.73
2023-05-08T09:55:24.847Z,1.83
2023-05-08T09:57:54.496Z,1.90
2023-05-08T10:00:23.741Z,2.03
2023-05-08T10:03:00.996Z,1.90
2023-05-08T10:05:31.842Z,2.13
2023-05-08T10:08:23.897Z,1.93
2023-05-08T10:10:54.334Z,1.90
2023-05-08T10:13:29.484Z,2.00
2023-05-08T10:15:58.953Z,1.87
2023-05-08T10:18:39.861Z,1.87
2023-05-08T10:21:09.113Z,3.10
2023-05-08T10:23:42.306Z,2.03
2023-05-08T10:26:15.087Z,1.80
2023-05-08T10:28:46.436Z,2.00
2023-05-08T10:31:19.513Z,2.10
2023-05-08T10:33:54.572Z,1.77
2023-05-08T10:36:23.300Z,1.50
2023-05-08T10:38:55.478Z,1.90
2023-05-08T10:41:24.114Z,2.13
2023-05-08T10:43:52.805Z,1.70
2023-05-08T10:46:33.584Z,2.73
2023-05-08T10:49:10.959Z,1.77
2023-05-08T10:51:45.598Z,1.63
2023-05-08T10:54:22.988Z,1.60
2023-05-08T10:56:52.363Z,1.60
2023-05-08T10:59:21.146Z,1.93
2023-05-08T11:01:50.701Z,1.67
2023-05-08T11:04:23.170Z,2.20
2023-05-08T11:06:53.906Z,2.00
2023-05-08T11:09:24.713Z,1.70
2023-05-08T11:12:03.533Z,2.00
2023-05-08T11:14:34.658Z,2.03
2023-05-08T11:17:08.438Z,2.40
2023-05-08T11:19:40.885Z,2.03
2023-05-08T11:22:17.074Z,1.90
2023-05-08T11:24:56.109Z,1.97
2023-05-08T11:28:05.979Z,1.80
2023-05-08T11:30:39.330Z,1.50
2023-05-08T11:33:20.534Z,1.87
2023-05-08T11:35:52.453Z,1.90
2023-05-08T11:38:23.122Z,1.80
2023-05-08T11:40:59.025Z,1.50
2023-05-08T11:43:32.441Z,1.70
2023-05-08T11:46:04.326Z,1.80
2023-05-08T11:48:35.092Z,1.67
2023-05-08T11:51:04.566Z,1.90
2023-05-08T11:53:33.222Z,1.50
2023-05-08T11:56:03.442Z,1.70
2023-05-08T11:58:32.217Z,1.60
2023-05-08T12:01:01.534Z,2.10
2023-05-08T12:03:29.954Z,2.43
2023-05-08T12:05:59.737Z,1.90
2023-05-08T12:08:28.340Z,1.77
2023-05-08T12:10:57.903Z,1.77
2023-05-08T12:13:29.384Z,1.70
2023-05-08T12:15:59.505Z,1.50
2023-05-08T12:18:30.685Z,1.40
2023-05-08T12:21:00.750Z,1.63
2023-05-08T12:23:31.054Z,1.67
2023-05-08T12:26:01.554Z,1.60
2023-05-08T12:28:32.298Z,1.37
2023-05-08T12:31:00.635Z,1.67
2023-05-08T12:33:29.331Z,1.80
2023-05-08T12:36:00.010Z,1.23
2023-05-08T12:38:28.838Z,1.30
2023-05-08T12:40:58.364Z,1.63
2023-05-08T12:43:35.706Z,1.70
2023-05-08T12:46:04.859Z,2.00
2023-05-08T12:48:35.467Z,1.70
2023-05-08T12:51:05.070Z,1.37
2023-05-08T12:53:34.505Z,1.50
2023-05-08T12:56:05.441Z,1.63
2023-05-08T12:58:36.142Z,1.37
2023-05-08T13:01:10.211Z,1.60
2023-05-08T13:03:41.515Z,1.47
2023-05-08T13:06:21.611Z,1.53
2023-05-08T13:08:56.230Z,1.53
2023-05-08T13:11:33.080Z,1.87
2023-05-08T13:14:02.906Z,1.47
2023-05-08T13:16:31.316Z,1.30
2023-05-08T13:18:59.598Z,1.27
2023-05-08T13:21:28.042Z,1.43
2023-05-08T13:23:57.160Z,1.20
2023-05-08T13:26:26.324Z,1.20
2023-05-08T13:28:56.592Z,1.10
2023-05-08T13:31:26.324Z,1.40
2023-05-08T13:33:54.472Z,1.20
2023-05-08T13:36:24.718Z,2.17
2023-05-08T13:38:54.812Z,0.93
2023-05-08T13:41:23.213Z,1.33
2023-05-08T13:43:52.338Z,1.23
2023-05-08T13:46:20.738Z,1.20
2023-05-08T13:48:52.022Z,1.23
2023-05-08T13:51:20.300Z,1.43
2023-05-08T13:53:48.617Z,0.97
2023-05-08T13:56:18.976Z,1.10
2023-05-08T13:58:49.773Z,1.00
2023-05-08T14:01:26.658Z,0.87
2023-05-08T14:03:57.221Z,1.23
2023-05-08T14:06:26.037Z,1.00
2023-05-08T14:08:55.490Z,1.07
2023-05-08T14:11:27.127Z,1.37
2023-05-08T14:13:55.314Z,1.10
2023-05-08T14:16:23.587Z,1.10
2023-05-08T14:18:52.954Z,0.87
2023-05-08T14:21:22.623Z,0.90
2023-05-08T14:23:50.840Z,0.70
2023-05-08T14:26:20.363Z,0.90
2023-05-08T14:28:48.629Z,0.97
2023-05-08T14:31:16.800Z,1.13
2023-05-08T14:33:46.578Z,1.20
2023-05-08T14:36:16.288Z,1.37
2023-05-08T14:38:45.831Z,1.23
2023-05-08T14:41:15.180Z,1.10
2023-05-08T14:43:44.027Z,1.10
2023-05-08T14:46:12.286Z,1.00
2023-05-08T14:48:41.451Z,1.20
2023-05-08T14:51:12.102Z,1.40
2023-05-08T14:53:40.414Z,0.90
2023-05-08T14:56:11.400Z,1.20
2023-05-08T14:58:39.738Z,1.00
2023-05-08T15:01:08.070Z,0.73
2023-05-08T15:03:38.300Z,0.90
2023-05-08T15:06:07.641Z,0.90
2023-05-08T15:08:36.052Z,0.80
2023-05-08T15:11:05.869Z,1.07
2023-05-08T15:13:35.509Z,0.93
2023-05-08T15:16:03.756Z,0.73
2023-05-08T15:18:33.932Z,1.40
2023-05-08T15:21:02.069Z,0.90
2023-05-08T15:23:30.335Z,1.03
2023-05-08T15:25:58.871Z,1.20
2023-05-08T15:28:27.151Z,0.90
2023-05-08T15:30:56.834Z,0.60
2023-05-08T15:33:26.544Z,1.00
2023-05-08T15:35:54.742Z,1.10
2023-05-08T15:38:22.888Z,0.73
2023-05-08T15:40:51.986Z,0.70
2023-05-08T15:43:20.078Z,0.80
2023-05-08T15:45:48.330Z,1.07
2023-05-08T15:48:19.495Z,1.37
2023-05-08T15:50:47.701Z,0.90
2023-05-08T15:53:17.554Z,0.80
2023-05-08T15:55:45.657Z,0.90
2023-05-08T15:58:13.886Z,0.90
2023-05-08T16:00:45.236Z,1.00
2023-05-08T16:03:15.107Z,1.13
2023-05-08T16:05:47.517Z,0.80
2023-05-08T16:08:15.737Z,0.70
2023-05-08T16:10:43.932Z,1.13
2023-05-08T16:13:12.235Z,1.33
2023-05-08T16:15:41.367Z,0.80
2023-05-08T16:18:09.773Z,1.00
2023-05-08T16:20:37.964Z,1.00
2023-05-08T16:23:09.494Z,1.23
2023-05-08T16:25:38.600Z,1.00
2023-05-08T16:28:06.853Z,1.30
2023-05-08T16:30:36.248Z,1.17
2023-05-08T16:33:04.461Z,1.00
2023-05-08T16:35:33.339Z,1.10
2023-05-08T16:38:04.936Z,0.97
2023-05-08T16:40:34.492Z,1.00
2023-05-08T16:43:03.729Z,1.20
2023-05-08T16:45:32.821Z,1.00
2023-05-08T16:48:01.074Z,1.10
2023-05-08T16:50:29.363Z,1.00
2023-05-08T16:52:58.954Z,1.03
2023-05-08T16:55:27.985Z,1.30
2023-05-08T16:57:58.537Z,1.10
2023-05-08T17:00:27.311Z,1.03
2023-05-08T17:02:55.529Z,1.67
2023-05-08T17:05:24.181Z,1.10
2023-05-08T17:07:54.323Z,1.13
2023-05-08T17:10:22.735Z,1.17
2023-05-08T17:12:54.103Z,1.33
2023-05-08T17:15:25.815Z,1.40
2023-05-08T17:17:56.034Z,1.50
2023-05-08T17:20:24.295Z,1.10
2023-05-08T17:22:55.366Z,0.90
2023-05-08T17:25:25.369Z,1.63
2023-05-08T17:27:53.613Z,1.30
2023-05-08T17:30:32.335Z,1.50
2023-05-08T17:33:04.473Z,1.40
2023-05-08T17:35:34.361Z,1.60
2023-05-08T17:38:03.331Z,1.10
2023-05-08T17:40:31.986Z,1.30
2023-05-08T17:43:00.325Z,1.40
2023-05-08T17:45:31.221Z,1.20
2023-05-08T17:48:00.618Z,1.20
2023-05-08T17:50:36.370Z,1.50
2023-05-08T17:53:04.550Z,1.37
2023-05-08T17:55:34.563Z,1.37
2023-05-08T17:58:03.938Z,1.40
2023-05-08T18:00:33.430Z,1.40
2023-05-08T18:03:02.111Z,2.47
2023-05-08T18:05:45.677Z,1.70
2023-05-08T18:08:13.896Z,0.77
2023-05-08T18:10:42.196Z,1.10
2023-05-08T18:13:11.622Z,1.30
2023-05-08T18:15:42.747Z,1.57
2023-05-08T18:18:11.030Z,1.60
2023-05-08T18:20:40.289Z,1.40
2023-05-08T18:23:08.496Z,1.53
2023-05-08T18:25:37.733Z,1.30
2023-05-08T18:28:07.810Z,1.50
2023-05-08T18:30:40.218Z,1.40
2023-05-08T18:33:11.079Z,1.33
2023-05-08T18:35:41.224Z,1.57
2023-05-08T18:38:09.508Z,1.57
2023-05-08T18:40:38.861Z,1.63
2023-05-08T18:43:07.039Z,1.50
2023-05-08T18:45:35.165Z,1.50
2023-05-08T18:48:04.981Z,1.70
2023-05-08T18:50:36.554Z,1.87
2023-05-08T18:53:06.884Z,1.47
2023-05-08T18:55:35.149Z,2.30
2023-05-08T18:58:16.020Z,1.90
2023-05-08T19:00:44.241Z,1.87
2023-05-08T19:03:12.493Z,1.90
2023-05-08T19:05:42.904Z,1.80
2023-05-08T19:08:11.206Z,1.80
2023-05-08T19:10:39.385Z,1.63
2023-05-08T19:13:11.938Z,2.27
2023-05-08T19:15:40.149Z,1.97
2023-05-08T19:18:09.181Z,2.10
2023-05-08T19:20:38.206Z,1.93
2023-05-08T19:23:07.725Z,1.73
2023-05-08T19:25:35.812Z,1.83
2023-05-08T19:28:05.192Z,2.57
2023-05-08T19:30:33.675Z,2.00
2023-05-08T19:33:01.843Z,1.90
2023-05-08T19:35:31.370Z,2.00
2023-05-08T19:38:00.470Z,1.90
2023-05-08T19:40:30.822Z,2.40
2023-05-08T19:43:00.491Z,1.80
2023-05-08T19:45:28.669Z,1.77
2023-05-08T19:47:56.871Z,2.03
2023-05-08T19:50:27.461Z,1.80
2023-05-08T19:52:55.708Z,1.80
2023-05-08T19:55:24.038Z,2.00
2023-05-08T19:57:54.979Z,2.00
2023-05-08T20:00:23.887Z,2.03
2023-05-08T20:02:58.727Z,1.33
2023-05-08T20:05:27.568Z,2.13
2023-05-08T20:07:55.672Z,1.90
2023-05-08T20:10:25.184Z,1.97
2023-05-08T20:12:54.767Z,1.90
2023-05-08T20:15:23.046Z,2.10
2023-05-08T20:17:59.815Z,2.13
2023-05-08T20:20:32.078Z,1.67
2023-05-08T20:23:03.757Z,1.77
2023-05-08T20:25:31.993Z,1.90
2023-05-08T20:28:02.006Z,2.13
2023-05-08T20:30:31.011Z,1.67
2023-05-08T20:33:06.155Z,1.87
2023-05-08T20:35:36.257Z,1.57
2023-05-08T20:38:04.648Z,1.77
2023-05-08T20:40:32.869Z,2.20
2023-05-08T20:43:05.182Z,2.27
2023-05-08T20:45:33.799Z,2.00
2023-05-08T20:48:02.094Z,1.97
2023-05-08T20:50:30.567Z,1.60
2023-05-08T20:53:01.777Z,1.97
2023-05-08T20:55:30.521Z,2.00
2023-05-08T20:58:06.040Z,1.80
2023-05-08T21:00:35.640Z,2.17
2023-05-08T21:03:05.580Z,2.27
2023-05-08T21:05:33.960Z,2.03
2023-05-08T21:08:04.392Z,1.90
2023-05-08T21:10:34.082Z,2.07
2023-05-08T21:13:03.592Z,1.90
2023-05-08T21:15:31.786Z,2.60
2023-05-08T21:18:03.081Z,2.13
2023-05-08T21:20:35.847Z,2.00
2023-05-08T21:23:05.415Z,2.37
2023-05-08T21:25:33.837Z,1.90
2023-05-08T21:28:02.108Z,2.00
2023-05-08T21:30:31.431Z,1.70
2023-05-08T21:33:01.500Z,2.10
2023-05-08T21:35:31.822Z,1.90
2023-05-08T21:38:02.532Z,1.80
2023-05-08T21:40:41.598Z,2.30
2023-05-08T21:43:10.451Z,2.10
2023-05-08T21:45:39.489Z,1.90
2023-05-08T21:48:09.639Z,2.20
2023-05-08T21:50:39.019Z,2.20
2023-05-08T21:53:07.507Z,2.07
2023-05-08T21:55:36.624Z,2.00
2023-05-08T21:58:05.800Z,2.43
2023-05-08T22:00:35.809Z,1.97
2023-05-08T22:03:10.899Z,2.00
2023-05-08T22:05:40.811Z,1.70
2023-05-08T22:08:09.550Z,1.93
2023-05-08T22:10:39.003Z,2.20
2023-05-08T22:13:07.559Z,2.03
2023-05-08T22:15:36.173Z,2.30
2023-05-08T22:18:06.031Z,2.07
2023-05-08T22:20:34.555Z,2.20
2023-05-08T22:23:04.905Z,1.97
2023-05-08T22:25:34.093Z,1.80
2023-05-08T22:28:02.310Z,2.40
2023-05-08T22:30:30.606Z,2.37
2023-05-08T22:33:00.313Z,2.00
2023-05-08T22:35:29.383Z,2.50
2023-05-08T22:38:07.639Z,2.07
2023-05-08T22:40:38.445Z,2.10
2023-05-08T22:43:07.839Z,2.27
2023-05-08T22:45:38.533Z,2.10
2023-05-08T22:48:07.730Z,2.10
2023-05-08T22:50:36.953Z,2.23
2023-05-08T22:53:08.397Z,2.27
2023-05-08T22:55:40.528Z,2.63
2023-05-08T22:58:08.851Z,2.70
2023-05-08T23:00:37.564Z,2.00
2023-05-08T23:03:07.394Z,2.30
2023-05-08T23:05:35.751Z,2.50
2023-05-08T23:08:04.576Z,2.53
2023-05-08T23:10:34.082Z,2.23
2023-05-08T23:13:04.365Z,2.40
2023-05-08T23:15:33.521Z,2.47
2023-05-08T23:18:02.348Z,2.20
2023-05-08T23:20:31.016Z,2.53
2023-05-08T23:23:01.609Z,2.90
2023-05-08T23:25:31.163Z,2.30
2023-05-08T23:27:59.272Z,2.70
2023-05-08T23:30:38.148Z,2.47
2023-05-08T23:33:07.012Z,2.30
2023-05-08T23:35:35.400Z,2.23
2023-05-08T23:38:03.840Z,2.33
2023-05-08T23:40:33.207Z,2.90
2023-05-08T23:43:02.424Z,2.63
2023-05-08T23:45:33.113Z,2.50
2023-05-08T23:48:01.361Z,2.47
2023-05-08T23:50:30.917Z,2.60
2023-05-08T23:52:59.603Z,2.27
2023-05-08T23:55:28.606Z,2.77
2023-05-08T23:57:58.089Z,2.40
